Time;durP1;ratioP1;P1;durP2;ratioP2;P2;SDS_P1;SDS_P2;PMS_P1;PMS_P2;Temp;Humidity;BMP_temperature;BMP_pressure;BME280_temperature;BME280_humidity;BME280_pressure;Samples;Min_cycle;Max_cycle;Signal;HPM_P1;HPM_P2
2022/02/28 00:02:16;;;;;;;;;;;1.60;82.20;;;;;;4952183;28;19926;-76
2022/02/28 00:04:44;;;;;;;;;;;1.60;81.90;;;;;;4947261;28;19926;-76
2022/02/28 00:07:11;;;;;;;;;;;1.60;81.90;;;;;;4949635;28;19973;-76
2022/02/28 00:09:37;;;;;;;;;;;1.60;81.50;;;;;;4957292;28;20009;-76
2022/02/28 00:12:04;;;;;;;;;;;1.70;81.50;;;;;;4952404;28;20029;-76
2022/02/28 00:14:31;;;;;;;;;;;1.70;80.70;;;;;;4957561;28;19933;-76
2022/02/28 00:16:58;;;;;;;;;;;1.70;80.90;;;;;;4959174;28;20017;-78
2022/02/28 00:19:24;;;;;;;;;;;1.60;81.20;;;;;;4957031;28;19978;-78
2022/02/28 00:21:52;;;;;;;;;;;1.60;81.40;;;;;;4958512;28;19931;-76
2022/02/28 00:24:19;;;;;;;;;;;1.60;81.50;;;;;;4953449;28;19933;-77
2022/02/28 00:26:46;;;;;;;;;;;1.60;82.00;;;;;;4955816;28;20025;-77
2022/02/28 00:29:12;;;;;;;;;;;1.50;81.90;;;;;;4968048;28;19927;-76
2022/02/28 00:31:39;;;;;;;;;;;1.40;81.90;;;;;;4955569;28;19926;-76
2022/02/28 00:34:05;;;;;;;;;;;1.30;82.10;;;;;;4957308;28;19941;-76
2022/02/28 00:36:32;;;;;;;;;;;1.10;83.30;;;;;;4959643;28;19986;-76
2022/02/28 00:39:00;;;;;;;;;;;1.10;84.90;;;;;;4955588;28;19978;-75
2022/02/28 00:41:27;;;;;;;;;;;1.10;85.60;;;;;;4955530;28;19926;-75
2022/02/28 00:43:53;;;;;;;;;;;1.10;85.50;;;;;;4959459;28;19978;-76
2022/02/28 00:46:20;;;;;;;;;;;1.10;85.30;;;;;;4950842;28;20030;-76
2022/02/28 00:48:47;;;;;;;;;;;1.10;85.80;;;;;;4966806;28;20018;-76
2022/02/28 00:51:13;;;;;;;;;;;1.10;86.00;;;;;;4958570;28;19966;-76
2022/02/28 00:53:40;;;;;;;;;;;1.10;86.30;;;;;;4956481;28;20029;-77
2022/02/28 00:56:08;;;;;;;;;;;1.10;86.60;;;;;;4959433;28;20018;-77
2022/02/28 00:58:35;;;;;;;;;;;1.10;87.00;;;;;;4957400;28;20013;-77
2022/02/28 01:01:01;;;;;;;;;;;1.10;86.80;;;;;;4952737;28;19952;-77
2022/02/28 01:03:28;;;;;;;;;;;1.10;86.30;;;;;;4955387;28;20040;-77
2022/02/28 01:05:55;;;;;;;;;;;1.10;86.60;;;;;;4957325;28;20025;-77
2022/02/28 01:08:22;;;;;;;;;;;1.10;86.80;;;;;;4955788;28;19930;-77
2022/02/28 01:10:49;;;;;;;;;;;1.00;87.20;;;;;;4957478;28;19946;-77
2022/02/28 01:13:17;;;;;;;;;;;1.10;87.00;;;;;;4952512;28;20449;-77
2022/02/28 01:15:44;;;;;;;;;;;1.00;87.20;;;;;;4953321;28;19933;-77
2022/02/28 01:18:10;;;;;;;;;;;1.10;87.70;;;;;;4953047;28;20297;-78
2022/02/28 01:20:37;;;;;;;;;;;1.00;87.50;;;;;;4946685;28;19927;-77
2022/02/28 01:23:04;;;;;;;;;;;1.00;87.30;;;;;;4957958;28;19927;-77
2022/02/28 01:25:31;;;;;;;;;;;0.80;87.10;;;;;;4951576;28;19933;-77
2022/02/28 01:27:58;;;;;;;;;;;0.80;87.80;;;;;;4948195;28;20018;-77
2022/02/28 01:30:26;;;;;;;;;;;0.70;88.10;;;;;;4954640;28;20349;-77
2022/02/28 01:32:53;;;;;;;;;;;0.70;89.00;;;;;;4952229;28;19926;-77
2022/02/28 01:35:20;;;;;;;;;;;0.60;89.30;;;;;;4948972;28;19934;-77
2022/02/28 01:37:46;;;;;;;;;;;0.40;90.00;;;;;;4953241;28;19930;-77
2022/02/28 01:40:14;;;;;;;;;;;0.40;90.40;;;;;;4952879;28;19930;-77
2022/02/28 01:42:41;;;;;;;;;;;0.40;91.20;;;;;;4952659;28;19930;-77
2022/02/28 01:45:09;;;;;;;;;;;0.30;91.50;;;;;;4953985;28;20009;-77
2022/02/28 01:47:37;;;;;;;;;;;0.30;91.90;;;;;;4953301;28;20002;-77
2022/02/28 01:50:04;;;;;;;;;;;0.20;92.30;;;;;;4952950;28;19926;-77
2022/02/28 01:52:31;;;;;;;;;;;0.20;93.00;;;;;;4952087;28;19935;-78
2022/02/28 01:54:57;;;;;;;;;;;0.20;93.80;;;;;;4954305;28;20001;-78
2022/02/28 01:57:24;;;;;;;;;;;0.20;94.10;;;;;;4956413;28;19931;-78
2022/02/28 01:59:51;;;;;;;;;;;0.10;94.90;;;;;;4956377;28;19933;-78
2022/02/28 02:02:18;;;;;;;;;;;0.20;95.30;;;;;;4953833;28;19935;-77
2022/02/28 02:04:46;;;;;;;;;;;0.20;95.50;;;;;;4955965;28;19927;-78
2022/02/28 02:07:12;;;;;;;;;;;0.20;95.50;;;;;;4957292;28;20295;-78
2022/02/28 02:09:39;;;;;;;;;;;0.30;95.80;;;;;;4954230;28;19945;-78
2022/02/28 02:12:06;;;;;;;;;;;0.50;95.50;;;;;;4952896;28;20307;-78
2022/02/28 02:14:33;;;;;;;;;;;0.60;95.10;;;;;;4943561;28;19933;-75
2022/02/28 02:17:00;;;;;;;;;;;0.60;95.00;;;;;;4955131;28;19927;-75
2022/02/28 02:19:26;;;;;;;;;;;0.60;94.80;;;;;;4952935;28;19933;-76
2022/02/28 02:21:54;;;;;;;;;;;0.60;94.80;;;;;;4955263;28;20287;-77
2022/02/28 02:24:21;;;;;;;;;;;0.70;94.70;;;;;;4948381;28;19933;-76
2022/02/28 02:26:48;;;;;;;;;;;0.70;94.70;;;;;;4950157;28;19926;-77
2022/02/28 02:29:14;;;;;;;;;;;0.60;94.80;;;;;;4951096;28;20282;-76
2022/02/28 02:31:41;;;;;;;;;;;0.50;94.80;;;;;;4979742;28;19989;-76
2022/02/28 02:34:08;;;;;;;;;;;0.60;95.10;;;;;;4949950;28;19948;-76
2022/02/28 02:36:34;;;;;;;;;;;0.50;95.10;;;;;;4955132;28;19993;-76
2022/02/28 02:39:02;;;;;;;;;;;0.40;95.20;;;;;;4947734;28;19990;-76
2022/02/28 02:41:29;;;;;;;;;;;0.50;95.30;;;;;;4953628;28;20404;-76
2022/02/28 02:43:56;;;;;;;;;;;0.30;95.30;;;;;;4944639;28;20436;-76
2022/02/28 02:46:22;;;;;;;;;;;0.30;95.50;;;;;;4954901;29;20025;-76
2022/02/28 02:48:49;;;;;;;;;;;0.20;95.60;;;;;;4954158;28;19933;-77
2022/02/28 02:51:17;;;;;;;;;;;0.20;95.80;;;;;;4954907;28;19935;-76
2022/02/28 02:53:44;;;;;;;;;;;0.00;95.80;;;;;;4953999;28;19958;-76
2022/02/28 02:56:14;;;;;;;;;;;0.00;96.20;;;;;;4953202;28;20010;-75
2022/02/28 02:58:41;;;;;;;;;;;0.00;96.60;;;;;;4955777;28;19926;-76
2022/02/28 03:01:07;;;;;;;;;;;0.00;96.90;;;;;;4956505;28;19949;-76
2022/02/28 03:03:34;;;;;;;;;;;-0.10;97.10;;;;;;4955108;28;19926;-76
2022/02/28 03:06:01;;;;;;;;;;;-0.20;97.40;;;;;;4953903;29;20009;-76
2022/02/28 03:08:28;;;;;;;;;;;-0.30;97.90;;;;;;4954525;28;19926;-76
2022/02/28 03:10:55;;;;;;;;;;;-0.30;98.30;;;;;;4946656;28;19927;-76
2022/02/28 03:13:23;;;;;;;;;;;-0.30;98.80;;;;;;4952009;28;19966;-77
2022/02/28 03:15:49;;;;;;;;;;;-0.40;98.80;;;;;;4953569;28;19933;-76
2022/02/28 03:18:16;;;;;;;;;;;-0.50;99.50;;;;;;4953460;28;19953;-77
2022/02/28 03:20:43;;;;;;;;;;;-0.40;99.90;;;;;;4955761;28;20021;-77
2022/02/28 03:23:10;;;;;;;;;;;-0.40;99.90;;;;;;4947516;28;19932;-77
2022/02/28 03:25:36;;;;;;;;;;;-0.50;99.90;;;;;;4957349;28;19980;-79
2022/02/28 03:28:03;;;;;;;;;;;-0.50;99.90;;;;;;4958312;28;19997;-78
2022/02/28 03:30:31;;;;;;;;;;;-0.50;99.90;;;;;;4956579;28;19927;-77
2022/02/28 03:32:58;;;;;;;;;;;-0.70;99.90;;;;;;4950314;28;20016;-77
2022/02/28 03:35:24;;;;;;;;;;;-0.70;99.90;;;;;;4953707;28;20393;-77
2022/02/28 03:37:51;;;;;;;;;;;-0.70;99.90;;;;;;4951453;28;19935;-78
2022/02/28 03:40:18;;;;;;;;;;;-0.60;99.90;;;;;;4953659;28;19927;-77
2022/02/28 03:42:45;;;;;;;;;;;-0.70;99.90;;;;;;4951618;28;19927;-77
2022/02/28 03:45:11;;;;;;;;;;;-0.80;99.90;;;;;;4951639;28;19933;-77
2022/02/28 03:47:39;;;;;;;;;;;-0.80;99.90;;;;;;4951732;28;20425;-77
2022/02/28 03:50:07;;;;;;;;;;;-0.90;99.90;;;;;;4954443;28;20306;-77
2022/02/28 03:52:33;;;;;;;;;;;-1.00;99.90;;;;;;4952787;28;19937;-77
2022/02/28 03:55:00;;;;;;;;;;;-1.00;99.90;;;;;;4953310;28;19933;-77
2022/02/28 03:57:27;;;;;;;;;;;-1.00;99.90;;;;;;4952989;28;19935;-77
2022/02/28 03:59:53;;;;;;;;;;;-1.10;99.90;;;;;;4952490;28;20302;-77
2022/02/28 04:02:20;;;;;;;;;;;-1.00;99.90;;;;;;4951978;28;20393;-77
2022/02/28 04:04:48;;;;;;;;;;;-0.90;99.90;;;;;;4951292;28;19927;-76
2022/02/28 04:07:15;;;;;;;;;;;-0.70;99.90;;;;;;4955028;28;20033;-77
2022/02/28 04:09:42;;;;;;;;;;;-1.00;99.90;;;;;;4952103;28;19926;-77
2022/02/28 04:12:09;;;;;;;;;;;-1.10;99.90;;;;;;4954766;28;19950;-77
2022/02/28 04:14:36;;;;;;;;;;;-1.10;99.90;;;;;;4953373;28;22402;-77
2022/02/28 04:17:03;;;;;;;;;;;-1.10;99.90;;;;;;4954296;28;19992;-77
2022/02/28 04:19:30;;;;;;;;;;;-1.20;99.90;;;;;;4954826;28;20021;-76
2022/02/28 04:21:58;;;;;;;;;;;-1.20;99.90;;;;;;4951324;28;19965;-77
2022/02/28 04:24:25;;;;;;;;;;;-1.10;99.90;;;;;;4950694;28;19933;-76
2022/02/28 04:26:51;;;;;;;;;;;-1.10;99.90;;;;;;4952017;28;19982;-76
2022/02/28 04:29:18;;;;;;;;;;;-1.10;99.90;;;;;;4952494;28;20013;-77
2022/02/28 04:31:45;;;;;;;;;;;-1.10;99.90;;;;;;4951916;28;20022;-77
2022/02/28 04:34:11;;;;;;;;;;;-1.10;99.90;;;;;;4952478;28;19933;-77
2022/02/28 04:36:38;;;;;;;;;;;-1.00;99.90;;;;;;4954154;28;20033;-77
2022/02/28 04:39:06;;;;;;;;;;;-0.90;99.90;;;;;;4955785;28;19965;-77
2022/02/28 04:41:33;;;;;;;;;;;-0.90;99.90;;;;;;4957369;28;19954;-76
2022/02/28 04:44:00;;;;;;;;;;;-0.90;99.90;;;;;;4955231;29;19933;-77
2022/02/28 04:46:26;;;;;;;;;;;-1.00;99.90;;;;;;4955260;28;19927;-77
2022/02/28 04:48:53;;;;;;;;;;;-1.10;99.90;;;;;;4953045;28;19952;-76
2022/02/28 04:51:20;;;;;;;;;;;-1.20;99.90;;;;;;4956135;28;19927;-76
2022/02/28 04:53:46;;;;;;;;;;;-1.20;99.90;;;;;;4954174;28;20061;-76
2022/02/28 04:56:14;;;;;;;;;;;-1.20;99.90;;;;;;4951427;28;19926;-76
2022/02/28 04:58:41;;;;;;;;;;;-1.10;99.90;;;;;;4950258;28;19933;-76
2022/02/28 05:01:07;;;;;;;;;;;-1.20;99.90;;;;;;4951129;28;19926;-75
2022/02/28 05:03:34;;;;;;;;;;;-1.30;99.90;;;;;;4950132;28;19933;-75
2022/02/28 05:06:01;;;;;;;;;;;-1.10;99.90;;;;;;4949303;28;19930;-74
2022/02/28 05:08:27;;;;;;;;;;;-1.10;99.90;;;;;;4949478;28;19933;-74
2022/02/28 05:10:54;;;;;;;;;;;-1.10;99.90;;;;;;4948570;28;19932;-74
2022/02/28 05:13:22;;;;;;;;;;;-1.10;99.90;;;;;;4947804;28;20024;-77
2022/02/28 05:15:49;;;;;;;;;;;-1.20;99.90;;;;;;4945761;28;20009;-74
2022/02/28 05:18:16;;;;;;;;;;;-1.30;99.90;;;;;;4948817;28;19933;-73
2022/02/28 05:20:42;;;;;;;;;;;-1.30;99.90;;;;;;4948009;28;19965;-74
2022/02/28 05:23:09;;;;;;;;;;;-1.30;99.90;;;;;;4946281;28;20030;-74
2022/02/28 05:25:36;;;;;;;;;;;-1.20;99.90;;;;;;4947501;28;19945;-74
2022/02/28 05:28:03;;;;;;;;;;;-1.20;99.90;;;;;;4946599;28;19934;-75
2022/02/28 05:30:31;;;;;;;;;;;-1.20;99.90;;;;;;4946964;28;20370;-75
2022/02/28 05:32:58;;;;;;;;;;;-1.20;99.90;;;;;;4950510;28;19933;-75
2022/02/28 05:35:25;;;;;;;;;;;-1.20;99.90;;;;;;4948022;28;19933;-76
2022/02/28 05:37:51;;;;;;;;;;;-1.20;99.90;;;;;;4947390;28;19926;-75
2022/02/28 05:40:20;;;;;;;;;;;-1.20;99.90;;;;;;4948186;28;19926;-75
2022/02/28 05:42:46;;;;;;;;;;;-1.30;99.90;;;;;;4945293;28;20980;-75
2022/02/28 05:45:13;;;;;;;;;;;-1.30;99.90;;;;;;4949103;28;19927;-75
2022/02/28 05:47:42;;;;;;;;;;;-1.30;99.90;;;;;;4947724;28;19927;-75
2022/02/28 05:50:09;;;;;;;;;;;-1.40;99.90;;;;;;4950759;28;19927;-75
2022/02/28 05:52:36;;;;;;;;;;;-1.40;99.90;;;;;;4947578;28;20021;-75
2022/02/28 05:55:02;;;;;;;;;;;-1.50;99.90;;;;;;4946930;28;19926;-76
2022/02/28 05:57:29;;;;;;;;;;;-1.40;99.90;;;;;;4951913;28;19934;-75
2022/02/28 05:59:56;;;;;;;;;;;-1.40;99.90;;;;;;4952607;28;19932;-75
2022/02/28 06:02:22;;;;;;;;;;;-1.30;99.90;;;;;;4950744;28;19934;-75
2022/02/28 06:04:50;;;;;;;;;;;-1.40;99.90;;;;;;4948505;28;19926;-75
2022/02/28 06:07:17;;;;;;;;;;;-1.10;99.90;;;;;;4949171;28;19931;-76
2022/02/28 06:09:43;;;;;;;;;;;-1.30;99.90;;;;;;4949985;28;19926;-76
2022/02/28 06:12:10;;;;;;;;;;;-1.30;99.90;;;;;;4951810;28;19927;-75
2022/02/28 06:14:37;;;;;;;;;;;-1.30;99.90;;;;;;4950733;28;19926;-75
2022/02/28 06:17:04;;;;;;;;;;;-1.20;99.90;;;;;;4950092;28;19935;-76
2022/02/28 06:19:31;;;;;;;;;;;-1.60;99.90;;;;;;4951222;28;20052;-75
2022/02/28 06:21:59;;;;;;;;;;;-1.50;99.90;;;;;;4951143;28;19926;-75
2022/02/28 06:24:26;;;;;;;;;;;-1.50;99.90;;;;;;4949271;28;19934;-75
2022/02/28 06:26:52;;;;;;;;;;;-1.50;99.90;;;;;;4948533;28;19931;-75
2022/02/28 06:29:19;;;;;;;;;;;-1.50;99.90;;;;;;4947896;28;20350;-75
2022/02/28 06:31:46;;;;;;;;;;;-1.40;99.90;;;;;;4946875;28;19954;-76
2022/02/28 06:34:13;;;;;;;;;;;-1.40;99.90;;;;;;4944944;28;19933;-76
2022/02/28 06:36:40;;;;;;;;;;;-1.50;99.90;;;;;;4947150;28;20390;-74
2022/02/28 06:39:09;;;;;;;;;;;-1.40;99.90;;;;;;4947681;28;19926;-75
2022/02/28 06:41:36;;;;;;;;;;;-1.50;99.90;;;;;;4947181;28;19930;-75
2022/02/28 06:44:03;;;;;;;;;;;-1.40;99.90;;;;;;4945970;28;19927;-75
2022/02/28 06:46:30;;;;;;;;;;;-1.30;99.90;;;;;;4943953;28;19933;-76
2022/02/28 06:48:57;;;;;;;;;;;-1.20;99.90;;;;;;4946373;28;19980;-76
2022/02/28 06:51:23;;;;;;;;;;;-1.10;99.90;;;;;;4952096;28;19927;-75
2022/02/28 06:53:50;;;;;;;;;;;-1.10;99.90;;;;;;4946578;28;20065;-75
2022/02/28 06:56:18;;;;;;;;;;;-1.00;99.90;;;;;;4948992;28;19931;-74
2022/02/28 06:58:45;;;;;;;;;;;-0.90;99.90;;;;;;4945406;28;20055;-74
2022/02/28 07:01:11;;;;;;;;;;;-0.90;99.90;;;;;;4948570;28;20030;-74
2022/02/28 07:03:38;;;;;;;;;;;-0.80;99.90;;;;;;4944942;28;20017;-75
2022/02/28 07:06:05;;;;;;;;;;;-0.80;99.90;;;;;;4946116;28;20492;-75
2022/02/28 07:08:34;;;;;;;;;;;-0.80;99.90;;;;;;4948389;28;19935;-75
2022/02/28 07:11:01;;;;;;;;;;;-0.80;99.90;;;;;;4946002;28;19933;-75
2022/02/28 07:13:29;;;;;;;;;;;-0.80;99.90;;;;;;4945422;28;20488;-74
2022/02/28 07:15:56;;;;;;;;;;;-0.60;99.90;;;;;;4942156;28;19931;-74
2022/02/28 07:18:22;;;;;;;;;;;-0.40;99.90;;;;;;4943642;28;19933;-73
2022/02/28 07:20:49;;;;;;;;;;;-0.40;99.90;;;;;;4949082;28;19941;-72
2022/02/28 07:23:16;;;;;;;;;;;-0.30;99.90;;;;;;4949510;28;19927;-73
2022/02/28 07:25:43;;;;;;;;;;;-0.20;99.90;;;;;;4948847;28;20018;-74
2022/02/28 07:28:10;;;;;;;;;;;-0.30;99.90;;;;;;4940598;28;20424;-74
2022/02/28 07:30:38;;;;;;;;;;;-0.30;99.90;;;;;;4951047;28;19924;-73
2022/02/28 07:33:05;;;;;;;;;;;-0.20;99.90;;;;;;4941498;28;19988;-74
2022/02/28 07:35:32;;;;;;;;;;;0.10;99.90;;;;;;4943241;28;19931;-73
2022/02/28 07:37:59;;;;;;;;;;;0.00;99.90;;;;;;4946016;28;19933;-74
2022/02/28 07:40:26;;;;;;;;;;;0.00;99.90;;;;;;4947669;28;19926;-74
2022/02/28 07:42:53;;;;;;;;;;;0.60;99.90;;;;;;4944911;28;20030;-74
2022/02/28 07:45:21;;;;;;;;;;;0.40;99.90;;;;;;4947597;28;19933;-73
2022/02/28 07:47:52;;;;;;;;;;;0.40;99.90;;;;;;4943619;28;19966;-73
2022/02/28 07:50:20;;;;;;;;;;;0.50;99.90;;;;;;4946025;28;19933;-74
2022/02/28 07:52:47;;;;;;;;;;;0.70;99.90;;;;;;4946902;28;19926;-73
2022/02/28 07:55:14;;;;;;;;;;;0.80;99.90;;;;;;4941806;28;19930;-73
2022/02/28 07:57:41;;;;;;;;;;;0.80;99.90;;;;;;4942841;28;20029;-74
2022/02/28 08:00:08;;;;;;;;;;;0.90;99.90;;;;;;4940382;28;19927;-74
2022/02/28 08:02:37;;;;;;;;;;;1.10;99.90;;;;;;4943009;28;19930;-73
2022/02/28 08:05:16;;;;;;;;;;;1.30;99.90;;;;;;4943374;28;20024;-73
2022/02/28 08:07:43;;;;;;;;;;;1.30;99.90;;;;;;4937984;28;20041;-74
2022/02/28 08:10:13;;;;;;;;;;;1.50;99.90;;;;;;4942386;28;19982;-73
2022/02/28 08:12:40;;;;;;;;;;;1.70;99.40;;;;;;4943983;28;19933;-73
2022/02/28 08:15:08;;;;;;;;;;;2.40;99.50;;;;;;4946883;28;20310;-73
2022/02/28 08:17:35;;;;;;;;;;;5.70;99.00;;;;;;4949206;28;19930;-73
2022/02/28 08:23:00;;;;;;;;;;;11.40;47.60;;;;;;5057669;27;20430;-73
2022/02/28 08:25:27;;;;;;;;;;;13.20;34.30;;;;;;5051199;28;19925;-73
2022/02/28 08:27:54;;;;;;;;;;;14.40;27.80;;;;;;5052909;28;19925;-73
2022/02/28 08:30:21;;;;;;;;;;;15.00;22.10;;;;;;5054092;28;19929;-72
2022/02/28 08:32:48;;;;;;;;;;;15.20;20.50;;;;;;5055391;28;19925;-74
2022/02/28 08:35:17;;;;;;;;;;;15.90;18.70;;;;;;5057626;28;20000;-76
2022/02/28 08:37:44;;;;;;;;;;;16.30;16.00;;;;;;5061496;28;19925;-73
2022/02/28 08:40:13;;;;;;;;;;;16.70;14.00;;;;;;5056860;28;19939;-74
2022/02/28 08:42:39;;;;;;;;;;;17.10;12.80;;;;;;5056231;28;19942;-73
2022/02/28 08:45:07;;;;;;;;;;;17.50;11.60;;;;;;5055806;28;20339;-75
2022/02/28 08:47:34;;;;;;;;;;;17.60;10.70;;;;;;5053332;28;19924;-75
2022/02/28 08:50:01;;;;;;;;;;;18.00;9.40;;;;;;5055982;28;20268;-74
2022/02/28 08:52:30;;;;;;;;;;;18.20;9.10;;;;;;5049691;28;19932;-74
2022/02/28 08:54:56;;;;;;;;;;;17.80;8.50;;;;;;5050337;28;19943;-75
2022/02/28 08:57:24;;;;;;;;;;;17.60;9.50;;;;;;5054651;28;19928;-74
2022/02/28 08:59:51;;;;;;;;;;;17.30;12.90;;;;;;5044629;28;19933;-74
2022/02/28 09:02:18;;;;;;;;;;;17.00;13.40;;;;;;5051601;28;20409;-73
2022/02/28 09:04:44;;;;;;;;;;;16.70;12.80;;;;;;5035880;28;19925;-73
2022/02/28 09:07:11;;;;;;;;;;;16.50;13.00;;;;;;5049480;28;20402;-73
2022/02/28 09:09:38;;;;;;;;;;;16.90;13.00;;;;;;5051878;28;19931;-74
2022/02/28 09:12:05;;;;;;;;;;;17.30;12.60;;;;;;5052100;28;20012;-73
2022/02/28 09:14:34;;;;;;;;;;;17.40;12.00;;;;;;5056306;28;20441;-73
2022/02/28 09:17:00;;;;;;;;;;;17.60;11.80;;;;;;5046935;28;19933;-73
2022/02/28 09:19:27;;;;;;;;;;;17.80;11.00;;;;;;5052734;28;19925;-73
2022/02/28 09:21:54;;;;;;;;;;;17.30;11.10;;;;;;5060331;28;20004;-73
2022/02/28 09:24:21;;;;;;;;;;;17.20;11.60;;;;;;5075062;28;19928;-73
2022/02/28 09:26:47;;;;;;;;;;;17.60;11.00;;;;;;5070987;28;19939;-73
2022/02/28 09:29:14;;;;;;;;;;;16.20;10.80;;;;;;5073451;28;19931;-73
2022/02/28 09:31:42;;;;;;;;;;;16.10;11.90;;;;;;5070121;28;20021;-73
2022/02/28 09:34:09;;;;;;;;;;;15.60;11.70;;;;;;5061107;28;20016;-74
2022/02/28 09:36:35;;;;;;;;;;;15.30;12.30;;;;;;5060793;28;19954;-75
2022/02/28 09:39:02;;;;;;;;;;;14.80;12.80;;;;;;5055330;28;20018;-74
2022/02/28 09:41:29;;;;;;;;;;;15.50;13.10;;;;;;5057018;28;20299;-74
2022/02/28 09:43:56;;;;;;;;;;;16.10;11.50;;;;;;5053858;28;20044;-75
2022/02/28 09:46:23;;;;;;;;;;;15.30;12.10;;;;;;5061789;28;20523;-75
2022/02/28 09:48:51;;;;;;;;;;;14.90;12.60;;;;;;5060764;28;20416;-74
2022/02/28 09:51:18;;;;;;;;;;;12.60;14.40;;;;;;5062790;28;20546;-75
2022/02/28 09:53:44;;;;;;;;;;;10.90;17.70;;;;;;5063183;28;19925;-74
2022/02/28 09:56:11;;;;;;;;;;;9.70;20.30;;;;;;5064050;28;19938;-74
2022/02/28 09:58:38;;;;;;;;;;;8.80;22.50;;;;;;5062937;28;19924;-75
2022/02/28 10:01:05;;;;;;;;;;;8.30;24.20;;;;;;5062644;28;19932;-73
2022/02/28 10:03:35;;;;;;;;;;;8.20;24.70;;;;;;5067294;28;19932;-74
2022/02/28 10:06:03;;;;;;;;;;;8.00;25.30;;;;;;5068242;28;20409;-74
2022/02/28 10:08:39;;;;;;;;;;;8.10;26.20;;;;;;5067472;28;20345;-73
2022/02/28 10:11:06;;;;;;;;;;;8.20;25.20;;;;;;5063075;28;19947;-73
2022/02/28 10:13:34;;;;;;;;;;;8.20;25.30;;;;;;5064780;28;20370;-73
2022/02/28 10:16:02;;;;;;;;;;;8.20;25.20;;;;;;5064102;28;20336;-73
2022/02/28 10:18:30;;;;;;;;;;;8.10;25.40;;;;;;5058273;28;19925;-74
2022/02/28 10:20:57;;;;;;;;;;;8.10;26.00;;;;;;5062284;28;19931;-74
2022/02/28 10:23:25;;;;;;;;;;;8.10;26.30;;;;;;5060864;28;20335;-74
2022/02/28 10:25:53;;;;;;;;;;;8.20;26.20;;;;;;5055065;28;19925;-73
2022/02/28 10:28:22;;;;;;;;;;;8.30;26.20;;;;;;5058765;28;20040;-73
2022/02/28 10:30:53;;;;;;;;;;;8.10;25.70;;;;;;5056160;28;19924;-73
2022/02/28 10:33:20;;;;;;;;;;;8.10;25.40;;;;;;5058359;28;19924;-73
2022/02/28 10:36:10;;;;;;;;;;;8.10;25.50;;;;;;5059566;28;19929;-73
2022/02/28 10:38:43;;;;;;;;;;;8.20;26.10;;;;;;5064123;28;19930;-74
2022/02/28 10:41:16;;;;;;;;;;;8.30;26.30;;;;;;5064887;28;20466;-74
2022/02/28 10:43:44;;;;;;;;;;;8.40;25.90;;;;;;5053973;28;20492;-74
2022/02/28 10:46:16;;;;;;;;;;;8.50;26.10;;;;;;5059673;28;19929;-74
2022/02/28 10:48:53;;;;;;;;;;;8.60;25.20;;;;;;5059563;28;19967;-74
2022/02/28 10:51:20;;;;;;;;;;;8.60;25.00;;;;;;5060986;28;19932;-74
2022/02/28 10:53:48;;;;;;;;;;;8.70;25.20;;;;;;5060722;28;19928;-74
2022/02/28 10:56:14;;;;;;;;;;;8.80;25.10;;;;;;5060559;28;20022;-74
2022/02/28 10:58:41;;;;;;;;;;;8.90;25.20;;;;;;5059498;28;19931;-74
2022/02/28 11:01:08;;;;;;;;;;;8.90;25.30;;;;;;5060116;28;19928;-74
2022/02/28 11:03:44;;;;;;;;;;;8.90;25.70;;;;;;5056418;28;19976;-74
2022/02/28 11:06:13;;;;;;;;;;;8.90;25.70;;;;;;5056231;28;19973;-73
2022/02/28 11:08:42;;;;;;;;;;;9.00;26.10;;;;;;5058374;28;20319;-73
2022/02/28 11:11:11;;;;;;;;;;;9.20;26.10;;;;;;5053865;28;20023;-74
2022/02/28 11:13:38;;;;;;;;;;;9.20;25.30;;;;;;5051654;28;19943;-73
2022/02/28 11:16:05;;;;;;;;;;;9.20;25.10;;;;;;5059558;28;19928;-73
2022/02/28 11:18:31;;;;;;;;;;;9.20;25.30;;;;;;5053516;28;19932;-74
2022/02/28 11:20:58;;;;;;;;;;;9.20;25.00;;;;;;5060107;28;20395;-72
2022/02/28 11:23:27;;;;;;;;;;;9.10;24.80;;;;;;5060779;28;19932;-74
2022/02/28 11:25:54;;;;;;;;;;;9.30;25.40;;;;;;5062083;28;20397;-74
2022/02/28 11:28:22;;;;;;;;;;;9.20;24.80;;;;;;5055009;28;19978;-74
2022/02/28 11:30:49;;;;;;;;;;;9.20;24.40;;;;;;5060193;28;19931;-73
2022/02/28 11:33:17;;;;;;;;;;;9.30;24.60;;;;;;5058798;28;20221;-73
2022/02/28 11:35:46;;;;;;;;;;;9.20;24.90;;;;;;5053610;28;19933;-74
2022/02/28 11:38:32;;;;;;;;;;;9.40;25.60;;;;;;5056036;28;19924;-72
2022/02/28 11:41:00;;;;;;;;;;;9.60;24.90;;;;;;5055270;28;20011;-72
2022/02/28 11:43:29;;;;;;;;;;;9.60;24.30;;;;;;5054667;28;20369;-72
2022/02/28 11:45:56;;;;;;;;;;;9.40;24.40;;;;;;5055432;28;20302;-73
2022/02/28 11:48:28;;;;;;;;;;;9.50;25.10;;;;;;5057801;28;19929;-73
2022/02/28 11:50:55;;;;;;;;;;;9.60;24.70;;;;;;5055611;28;20011;-72
2022/02/28 11:53:35;;;;;;;;;;;9.60;24.70;;;;;;5055604;28;19931;-73
2022/02/28 11:56:02;;;;;;;;;;;9.70;24.50;;;;;;5058753;28;20028;-72
2022/02/28 11:58:33;;;;;;;;;;;9.90;24.90;;;;;;5055741;28;19924;-72
2022/02/28 12:01:11;;;;;;;;;;;10.00;23.00;;;;;;5055998;28;20016;-72
2022/02/28 12:03:37;;;;;;;;;;;10.10;22.70;;;;;;5050153;28;19928;-73
2022/02/28 12:06:04;;;;;;;;;;;10.20;23.10;;;;;;5053264;28;19931;-73
2022/02/28 12:08:35;;;;;;;;;;;10.20;23.20;;;;;;5058055;28;20435;-73
2022/02/28 12:11:16;;;;;;;;;;;10.20;23.00;;;;;;5054498;28;19940;-73
2022/02/28 12:13:44;;;;;;;;;;;10.30;22.00;;;;;;5059749;28;19932;-73
2022/02/28 12:17:30;;;;;;;;;;;10.30;20.70;;;;;;5054709;28;20369;-73
2022/02/28 12:19:26;;;;;;;;;;;10.20;21.50;;;;;;5054724;28;20311;-72
2022/02/28 12:21:58;;;;;;;;;;;10.40;20.90;;;;;;5057505;28;19932;-73
2022/02/28 12:24:39;;;;;;;;;;;10.60;20.10;;;;;;5052618;28;20441;-73
2022/02/28 12:27:12;;;;;;;;;;;10.60;19.80;;;;;;5051283;28;20457;-73
2022/02/28 12:29:39;;;;;;;;;;;10.70;20.10;;;;;;5049352;28;19925;-74
2022/02/28 12:32:05;;;;;;;;;;;10.70;20.30;;;;;;5054537;28;19925;-74
2022/02/28 12:34:35;;;;;;;;;;;10.60;21.10;;;;;;5043529;22;19994;-73
2022/02/28 12:37:03;;;;;;;;;;;10.60;20.00;;;;;;5038920;28;20008;-73
2022/02/28 12:39:30;;;;;;;;;;;10.30;20.90;;;;;;5038279;28;19958;-74
2022/02/28 12:41:56;;;;;;;;;;;10.60;21.20;;;;;;5036728;28;20482;-73
2022/02/28 12:44:23;;;;;;;;;;;10.70;20.70;;;;;;5032182;28;19932;-72
2022/02/28 12:46:53;;;;;;;;;;;10.80;20.10;;;;;;5037517;28;20029;-74
2022/02/28 12:49:21;;;;;;;;;;;10.80;19.70;;;;;;5035624;28;19935;-73
2022/02/28 12:51:50;;;;;;;;;;;10.90;20.00;;;;;;5030152;28;19933;-73
2022/02/28 12:54:20;;;;;;;;;;;11.10;19.60;;;;;;5033685;28;19932;-74
2022/02/28 12:56:47;;;;;;;;;;;10.80;19.80;;;;;;5032336;28;20407;-74
2022/02/28 12:59:15;;;;;;;;;;;10.90;19.80;;;;;;5014194;28;20030;-72
2022/02/28 13:01:43;;;;;;;;;;;11.00;19.00;;;;;;5029594;28;20027;-74
2022/02/28 13:04:10;;;;;;;;;;;11.20;19.00;;;;;;5038658;28;19933;-75
2022/02/28 13:06:38;;;;;;;;;;;11.40;19.60;;;;;;5030996;28;19951;-74
2022/02/28 13:09:07;;;;;;;;;;;11.60;18.40;;;;;;5039048;28;20354;-74
2022/02/28 13:11:35;;;;;;;;;;;11.60;17.70;;;;;;5037699;28;19925;-74
2022/02/28 13:14:04;;;;;;;;;;;11.60;18.10;;;;;;5036806;28;20028;-75
2022/02/28 13:16:31;;;;;;;;;;;11.40;18.30;;;;;;5035688;28;20014;-75
2022/02/28 13:19:01;;;;;;;;;;;11.50;19.20;;;;;;5038006;28;19940;-73
2022/02/28 13:21:29;;;;;;;;;;;11.30;19.10;;;;;;5037788;28;20323;-74
2022/02/28 13:24:00;;;;;;;;;;;11.40;19.40;;;;;;5042796;28;19932;-74
2022/02/28 13:26:28;;;;;;;;;;;11.50;18.00;;;;;;5038953;28;19931;-74
2022/02/28 13:28:55;;;;;;;;;;;11.60;18.50;;;;;;5034239;28;19925;-73
2022/02/28 13:31:22;;;;;;;;;;;11.50;19.50;;;;;;5046608;28;20354;-74
2022/02/28 13:33:51;;;;;;;;;;;10.90;19.70;;;;;;5033474;28;20249;-74
2022/02/28 13:36:18;;;;;;;;;;;11.00;20.40;;;;;;5036287;28;20551;-74
2022/02/28 13:38:45;;;;;;;;;;;11.30;19.70;;;;;;5039690;28;19925;-75
2022/02/28 13:41:14;;;;;;;;;;;11.50;19.30;;;;;;5036835;28;19979;-74
2022/02/28 13:43:44;;;;;;;;;;;11.40;20.00;;;;;;5040018;28;19925;-74
2022/02/28 13:46:13;;;;;;;;;;;11.60;18.80;;;;;;5036367;28;20380;-75
2022/02/28 13:48:40;;;;;;;;;;;11.80;18.90;;;;;;5034067;28;19960;-74
2022/02/28 13:51:10;;;;;;;;;;;11.60;18.50;;;;;;5036407;28;19925;-73
2022/02/28 13:53:43;;;;;;;;;;;11.50;19.10;;;;;;5033581;28;19933;-75
2022/02/28 13:56:22;;;;;;;;;;;11.50;18.90;;;;;;5032641;28;20422;-74
2022/02/28 13:58:50;;;;;;;;;;;11.50;19.00;;;;;;5034010;28;19925;-75
2022/02/28 14:01:18;;;;;;;;;;;11.50;19.20;;;;;;5032187;28;20019;-74
2022/02/28 14:03:59;;;;;;;;;;;11.20;19.50;;;;;;5033871;28;20281;-74
2022/02/28 14:06:25;;;;;;;;;;;11.30;19.80;;;;;;5040990;28;20022;-74
2022/02/28 14:08:53;;;;;;;;;;;11.40;18.70;;;;;;5035949;28;19933;-74
2022/02/28 14:11:27;;;;;;;;;;;11.50;18.60;;;;;;5037263;28;20434;-76
2022/02/28 14:13:55;;;;;;;;;;;11.20;20.20;;;;;;5034197;28;19933;-76
2022/02/28 14:16:23;;;;;;;;;;;11.30;19.40;;;;;;5033565;28;19932;-74
2022/02/28 14:19:01;;;;;;;;;;;11.50;19.00;;;;;;5034640;28;20365;-73
2022/02/28 14:21:30;;;;;;;;;;;11.50;19.00;;;;;;5043173;28;19933;-74
2022/02/28 14:23:57;;;;;;;;;;;11.40;20.40;;;;;;5034726;28;19925;-75
2022/02/28 14:26:30;;;;;;;;;;;11.50;19.50;;;;;;5033203;28;19945;-74
2022/02/28 14:29:01;;;;;;;;;;;11.50;18.70;;;;;;5034278;28;19929;-74
2022/02/28 14:31:28;;;;;;;;;;;11.60;18.20;;;;;;5034417;28;19933;-74